createdAt,value
2022-08-05T00:02:07.917Z,7.13
2022-08-05T00:04:14.425Z,8.10
2022-08-05T00:06:27.862Z,7.00
2022-08-05T00:08:35.641Z,7.87
2022-08-05T00:10:38.912Z,7.40
2022-08-05T00:12:55.873Z,7.40
2022-08-05T00:14:59.591Z,7.30
2022-08-05T00:17:22.237Z,8.00
2022-08-05T00:19:33.252Z,9.00
2022-08-05T00:21:36.810Z,9.33
2022-08-05T00:23:45.813Z,9.10
2022-08-05T00:25:50.183Z,8.47
2022-08-05T00:27:56.656Z,7.50
2022-08-05T00:30:03.067Z,9.23
2022-08-05T00:32:12.278Z,8.03
2022-08-05T00:34:53.413Z,8.50
2022-08-05T00:37:09.839Z,7.70
2022-08-05T00:39:04.997Z,7.90
2022-08-05T00:41:11.771Z,8.20
2022-08-05T00:43:15.378Z,6.80
2022-08-05T00:45:25.015Z,7.90
2022-08-05T00:47:57.337Z,7.10
2022-08-05T00:50:04.098Z,7.00
2022-08-05T00:52:08.204Z,6.80
2022-08-05T00:54:12.834Z,8.03
2022-08-05T00:56:17.299Z,6.40
2022-08-05T00:58:20.358Z,6.87
2022-08-05T01:00:26.025Z,6.27
2022-08-05T01:02:28.832Z,6.33
2022-08-05T01:04:31.484Z,6.50
2022-08-05T01:06:34.126Z,5.40
2022-08-05T01:08:43.038Z,4.77
2022-08-05T01:10:57.956Z,4.90
2022-08-05T01:13:13.347Z,10.73
2022-08-05T01:15:35.534Z,5.13
2022-08-05T01:17:44.660Z,5.33
2022-08-05T01:20:07.292Z,5.07
2022-08-05T01:22:41.833Z,5.33
2022-08-05T01:25:00.745Z,7.23
2022-08-05T01:27:17.799Z,5.33
2022-08-05T01:29:30.823Z,4.63
2022-08-05T01:31:42.446Z,6.70
2022-08-05T01:33:53.688Z,5.63
2022-08-05T01:36:00.077Z,5.63
2022-08-05T01:38:06.927Z,5.30
2022-08-05T01:40:11.605Z,4.60
2022-08-05T01:42:18.188Z,6.20
2022-08-05T01:44:24.713Z,5.40
2022-08-05T01:46:42.238Z,5.50
2022-08-05T01:48:50.040Z,6.00
2022-08-05T01:50:55.493Z,5.93
2022-08-05T01:53:02.583Z,12.53
2022-08-05T01:55:12.605Z,5.20
2022-08-05T01:58:29.946Z,8.60
2022-08-05T01:59:53.738Z,5.63
2022-08-05T02:01:59.075Z,10.23
2022-08-05T02:04:04.216Z,5.60
2022-08-05T02:06:33.502Z,5.77
2022-08-05T02:08:31.627Z,11.70
2022-08-05T02:10:40.363Z,6.60
2022-08-05T02:12:51.012Z,5.40
2022-08-05T02:15:04.448Z,6.40
2022-08-05T02:17:17.069Z,7.17
2022-08-05T02:19:46.952Z,9.57
2022-08-05T02:21:55.348Z,4.90
2022-08-05T02:24:05.336Z,7.60
2022-08-05T02:26:11.776Z,8.33
2022-08-05T02:28:15.957Z,5.20
2022-08-05T02:30:51.864Z,5.40
2022-08-05T02:33:01.056Z,6.13
2022-08-05T02:35:13.588Z,5.20
2022-08-05T02:37:18.285Z,6.20
2022-08-05T02:39:25.886Z,7.03
2022-08-05T02:41:42.947Z,6.47
2022-08-05T02:44:06.288Z,6.40
2022-08-05T02:46:17.717Z,7.40
2022-08-05T02:48:31.202Z,6.17
2022-08-05T02:50:34.667Z,8.03
2022-08-05T02:52:38.363Z,7.00
2022-08-05T02:54:52.064Z,5.37
2022-08-05T02:56:56.971Z,5.13
2022-08-05T02:59:01.451Z,7.23
2022-08-05T03:01:04.750Z,7.80
2022-08-05T03:03:10.543Z,7.63
2022-08-05T03:05:14.824Z,4.83
2022-08-05T03:07:40.473Z,5.53
2022-08-05T03:09:51.444Z,5.33
2022-08-05T03:11:57.887Z,5.23
2022-08-05T03:14:03.328Z,9.53
2022-08-05T03:16:07.253Z,8.03
2022-08-05T03:18:13.677Z,6.03
2022-08-05T03:20:20.182Z,9.83
2022-08-05T03:22:32.384Z,5.80
2022-08-05T03:24:35.549Z,6.60
2022-08-05T03:26:38.431Z,6.23
2022-08-05T03:28:41.350Z,5.40
2022-08-05T03:30:45.565Z,8.43
2022-08-05T03:32:50.442Z,5.97
2022-08-05T03:34:55.454Z,6.30
2022-08-05T03:36:58.227Z,10.17
2022-08-05T03:39:08.091Z,7.60
2022-08-05T03:41:17.109Z,6.70
2022-08-05T03:44:08.666Z,5.97
2022-08-05T03:45:57.432Z,6.83
2022-08-05T03:48:01.082Z,5.60
2022-08-05T03:50:05.870Z,6.83
2022-08-05T03:52:49.155Z,5.80
2022-08-05T03:55:34.206Z,5.83
2022-08-05T03:57:16.499Z,7.80
2022-08-05T03:59:24.691Z,10.30
2022-08-05T04:01:32.279Z,7.63
2022-08-05T04:03:37.978Z,5.93
2022-08-05T04:05:44.015Z,7.43
2022-08-05T04:07:58.147Z,8.20
2022-08-05T04:10:02.960Z,6.77
2022-08-05T04:12:11.392Z,8.70
2022-08-05T04:14:30.191Z,8.90
2022-08-05T04:16:35.394Z,6.03
2022-08-05T04:18:39.585Z,6.17
2022-08-05T04:20:43.847Z,6.20
2022-08-05T04:22:47.755Z,7.30
2022-08-05T04:24:52.413Z,8.30
2022-08-05T04:26:55.694Z,7.43
2022-08-05T04:29:01.291Z,6.70
2022-08-05T04:31:10.620Z,5.70
2022-08-05T04:33:14.072Z,5.50
2022-08-05T04:35:19.601Z,6.23
2022-08-05T04:38:00.708Z,8.93
2022-08-05T04:39:46.691Z,6.67
2022-08-05T04:41:56.190Z,8.40
2022-08-05T04:43:58.898Z,7.87
2022-08-05T04:46:03.140Z,7.80
2022-08-05T04:48:10.240Z,6.70
2022-08-05T04:50:34.653Z,6.63
2022-08-05T04:52:43.356Z,11.03
2022-08-05T04:54:47.521Z,7.50
2022-08-05T04:56:55.264Z,6.50
2022-08-05T04:59:00.294Z,9.40
2022-08-05T05:02:05.971Z,6.10
2022-08-05T05:03:45.698Z,8.30
2022-08-05T05:06:35.842Z,6.83
2022-08-05T05:08:14.399Z,6.50
2022-08-05T05:10:34.740Z,6.70
2022-08-05T05:12:37.439Z,7.00
2022-08-05T05:14:49.345Z,7.87
2022-08-05T05:16:54.490Z,6.50
2022-08-05T05:19:18.853Z,8.33
2022-08-05T05:21:20.195Z,9.63
2022-08-05T05:23:24.195Z,6.90
2022-08-05T05:25:32.665Z,8.87
2022-08-05T05:27:44.567Z,10.40
2022-08-05T05:30:04.480Z,6.93
2022-08-05T05:32:08.124Z,6.83
2022-08-05T05:34:15.626Z,6.93
2022-08-05T05:36:19.334Z,6.50
2022-08-05T05:38:27.132Z,9.13
2022-08-05T05:40:32.071Z,8.13
2022-08-05T05:42:34.944Z,8.57
2022-08-05T05:44:42.911Z,6.90
2022-08-05T05:46:48.675Z,10.37
2022-08-05T05:48:53.916Z,8.30
2022-08-05T05:50:56.631Z,9.70
2022-08-05T05:52:59.255Z,8.83
2022-08-05T05:55:07.439Z,8.73
2022-08-05T05:57:19.046Z,8.77
2022-08-05T05:59:22.136Z,8.57
2022-08-05T06:01:25.377Z,9.93
2022-08-05T06:04:01.366Z,9.30
2022-08-05T06:06:02.534Z,8.20
2022-08-05T06:08:06.625Z,9.83
2022-08-05T06:10:14.096Z,8.53
2022-08-05T06:12:18.412Z,7.80
2022-08-05T06:14:22.332Z,7.87
2022-08-05T06:16:36.632Z,7.53
2022-08-05T06:18:39.761Z,7.13
2022-08-05T06:20:42.493Z,6.70
2022-08-05T06:22:50.600Z,8.37
2022-08-05T06:24:53.740Z,6.30
2022-08-05T06:26:57.762Z,7.90
2022-08-05T06:29:06.072Z,7.10
2022-08-05T06:31:23.187Z,9.27
2022-08-05T06:34:07.859Z,7.37
2022-08-05T06:36:07.719Z,6.83
2022-08-05T06:38:12.912Z,6.60
2022-08-05T06:40:18.203Z,6.53
2022-08-05T06:42:25.393Z,6.90
2022-08-05T06:44:28.367Z,6.57
2022-08-05T06:46:31.122Z,6.63
2022-08-05T06:48:52.623Z,7.37
2022-08-05T06:50:58.089Z,6.40
2022-08-05T06:53:03.717Z,6.30
2022-08-05T06:55:14.492Z,6.13
2022-08-05T06:58:02.540Z,6.47
2022-08-05T06:59:42.475Z,6.20
2022-08-05T07:01:57.763Z,6.43
2022-08-05T07:04:02.983Z,6.80
2022-08-05T07:06:14.399Z,6.10
2022-08-05T07:08:18.017Z,5.47
2022-08-05T07:10:21.949Z,7.27
2022-08-05T07:12:52.616Z,5.13
2022-08-05T07:15:14.262Z,5.60
2022-08-05T07:18:08.337Z,5.80
2022-08-05T07:22:28.460Z,5.00
2022-08-05T07:24:33.815Z,6.43
2022-08-05T07:26:47.181Z,5.30
2022-08-05T07:28:50.627Z,5.10
2022-08-05T07:30:55.287Z,5.07
2022-08-05T07:32:58.245Z,4.70
2022-08-05T07:35:00.922Z,5.17
2022-08-05T07:37:23.818Z,5.50
2022-08-05T07:40:26.527Z,4.93
2022-08-05T07:42:14.194Z,4.47
2022-08-05T07:44:19.098Z,5.27
2022-08-05T07:46:25.502Z,4.80
2022-08-05T07:49:03.125Z,7.90
2022-08-05T07:50:51.340Z,5.17
2022-08-05T07:52:54.095Z,4.20
2022-08-05T07:54:57.461Z,4.27
2022-08-05T07:57:50.565Z,4.77
2022-08-05T07:59:38.380Z,5.73
2022-08-05T08:01:52.161Z,7.57
2022-08-05T08:04:00.111Z,7.33
2022-08-05T08:06:04.559Z,4.87
2022-08-05T08:08:12.282Z,5.47
2022-08-05T08:10:15.339Z,5.10
2022-08-05T08:12:35.058Z,4.10
2022-08-05T08:14:42.407Z,7.30
2022-08-05T08:16:53.478Z,4.23
2022-08-05T08:18:56.656Z,5.00
2022-08-05T08:21:03.655Z,5.63
2022-08-05T08:23:07.506Z,4.53
2022-08-05T08:25:59.898Z,4.33
2022-08-05T08:27:53.651Z,3.83
2022-08-05T08:30:05.898Z,4.00
2022-08-05T08:32:28.065Z,3.73
2022-08-05T08:34:33.402Z,3.97
2022-08-05T08:36:48.868Z,4.03
2022-08-05T08:38:56.157Z,5.37
2022-08-05T08:41:01.382Z,3.80
2022-08-05T08:45:04.465Z,3.80
2022-08-05T08:45:29.858Z,3.50
2022-08-05T08:48:05.437Z,4.07
2022-08-05T08:50:13.132Z,3.10
2022-08-05T08:52:25.589Z,3.10
2022-08-05T08:54:28.918Z,3.73
2022-08-05T08:56:33.367Z,3.50
2022-08-05T08:58:44.563Z,3.70
2022-08-05T09:00:51.524Z,4.00
2022-08-05T09:02:55.985Z,3.43
2022-08-05T09:05:16.678Z,3.40
2022-08-05T09:07:29.025Z,3.57
2022-08-05T09:09:34.834Z,3.70
2022-08-05T09:11:53.649Z,3.37
2022-08-05T09:14:09.663Z,3.40
2022-08-05T09:16:22.491Z,3.73
2022-08-05T09:18:31.104Z,3.67
2022-08-05T09:20:36.655Z,3.43
2022-08-05T09:23:18.461Z,3.60
2022-08-05T09:25:24.568Z,3.30
2022-08-05T09:28:04.212Z,5.07
2022-08-05T09:30:08.467Z,5.03
2022-08-05T09:32:41.376Z,3.63
2022-08-05T09:34:51.414Z,2.93
2022-08-05T09:36:59.215Z,3.77
2022-08-05T09:39:17.991Z,2.97
2022-08-05T09:41:24.837Z,3.33
2022-08-05T09:43:40.538Z,3.10
2022-08-05T09:46:07.571Z,6.03
2022-08-05T09:48:21.143Z,3.50
2022-08-05T09:50:38.660Z,3.00
2022-08-05T09:52:48.339Z,3.37
2022-08-05T09:54:57.657Z,3.47
2022-08-05T09:57:01.220Z,3.40
2022-08-05T09:59:07.032Z,3.20
2022-08-05T10:01:15.709Z,3.47
2022-08-05T10:03:56.496Z,3.50
2022-08-05T10:06:15.587Z,3.00
2022-08-05T10:08:36.832Z,5.20
2022-08-05T10:10:53.600Z,3.53
2022-08-05T10:12:59.676Z,3.20
2022-08-05T10:15:17.137Z,4.97
2022-08-05T10:17:37.367Z,3.10
2022-08-05T10:20:02.856Z,3.23
2022-08-05T10:22:09.069Z,3.43
2022-08-05T10:24:19.487Z,3.80
2022-08-05T10:26:32.476Z,3.40
2022-08-05T10:28:36.448Z,3.63
2022-08-05T10:32:48.134Z,3.13
2022-08-05T10:33:04.371Z,3.23
2022-08-05T10:35:12.205Z,3.50
2022-08-05T10:37:16.640Z,3.77
2022-08-05T10:40:03.097Z,4.20
2022-08-05T10:41:56.800Z,3.20
2022-08-05T10:44:07.961Z,3.30
2022-08-05T10:46:14.261Z,3.60
2022-08-05T10:48:52.824Z,3.70
2022-08-05T10:51:01.835Z,3.33
2022-08-05T10:53:45.113Z,3.30
2022-08-05T10:56:14.529Z,3.60
2022-08-05T10:58:47.809Z,4.90
2022-08-05T11:00:55.052Z,4.60
2022-08-05T11:03:23.785Z,4.03
2022-08-05T11:05:29.313Z,3.77
2022-08-05T11:08:02.680Z,3.83
2022-08-05T11:10:03.697Z,4.90
2022-08-05T11:12:07.137Z,3.70
2022-08-05T11:14:13.736Z,3.60
2022-08-05T11:16:23.206Z,4.07
2022-08-05T11:18:36.961Z,3.73
2022-08-05T11:20:51.290Z,3.77
2022-08-05T11:22:58.026Z,3.37
2022-08-05T11:26:04.109Z,3.80
2022-08-05T11:28:00.516Z,4.23
2022-08-05T11:30:03.667Z,3.93
2022-08-05T11:32:26.321Z,3.90
2022-08-05T11:34:38.769Z,3.77
2022-08-05T11:36:52.785Z,4.50
2022-08-05T11:38:57.814Z,3.70
2022-08-05T11:41:34.329Z,4.50
2022-08-05T11:44:04.430Z,3.87
2022-08-05T11:46:30.601Z,5.10
2022-08-05T11:48:12.962Z,4.10
2022-08-05T11:50:17.431Z,3.90
2022-08-05T11:52:29.645Z,3.97
2022-08-05T11:54:34.996Z,4.70
2022-08-05T11:56:50.338Z,4.40
2022-08-05T11:58:54.821Z,3.90
2022-08-05T12:01:04.590Z,4.50
2022-08-05T12:03:29.328Z,4.17
2022-08-05T12:05:39.797Z,4.37
2022-08-05T12:08:09.013Z,4.17
2022-08-05T12:10:09.485Z,4.20
2022-08-05T12:12:22.544Z,4.43
2022-08-05T12:14:37.487Z,7.33
2022-08-05T12:16:45.129Z,4.40
2022-08-05T12:18:53.112Z,3.70
2022-08-05T12:20:56.133Z,4.90
2022-08-05T12:23:09.264Z,3.90
2022-08-05T12:25:14.185Z,4.40
2022-08-05T12:27:25.356Z,3.90
2022-08-05T12:29:37.980Z,4.10
2022-08-05T12:31:48.235Z,4.77
2022-08-05T12:33:57.267Z,5.77
2022-08-05T12:36:02.667Z,4.30
2022-08-05T12:38:07.156Z,4.00
2022-08-05T12:40:26.618Z,3.70
2022-08-05T12:42:33.104Z,4.47
2022-08-05T12:44:36.899Z,3.80
2022-08-05T12:46:45.705Z,4.40
2022-08-05T12:48:48.518Z,5.57
2022-08-05T12:52:10.685Z,4.17
2022-08-05T12:53:36.947Z,3.80
2022-08-05T12:55:42.348Z,4.20
2022-08-05T12:58:48.952Z,3.73
2022-08-05T13:02:01.884Z,3.90
2022-08-05T13:02:44.022Z,4.00
2022-08-05T13:04:54.936Z,4.10
2022-08-05T13:06:59.446Z,4.23
2022-08-05T13:09:08.725Z,4.90
2022-08-05T13:11:18.357Z,4.57
2022-08-05T13:14:04.875Z,3.97
2022-08-05T13:16:13.159Z,4.70
2022-08-05T13:18:20.563Z,3.97
2022-08-05T13:20:25.346Z,3.93
2022-08-05T13:22:31.281Z,4.10
2022-08-05T13:24:51.365Z,3.80
2022-08-05T13:26:57.007Z,4.13
2022-08-05T13:29:02.011Z,4.00
2022-08-05T13:31:13.883Z,4.07
2022-08-05T13:34:22.647Z,4.03
2022-08-05T13:35:42.980Z,5.03
2022-08-05T13:37:55.561Z,4.13
2022-08-05T13:40:16.048Z,4.27
2022-08-05T13:42:22.493Z,4.10
2022-08-05T13:44:29.167Z,4.70
2022-08-05T13:48:58.518Z,4.33
2022-08-05T13:51:07.467Z,4.70
2022-08-05T13:53:15.789Z,4.40
2022-08-05T13:55:41.421Z,5.40
2022-08-05T13:57:51.332Z,4.40
2022-08-05T13:59:59.372Z,4.13
2022-08-05T14:02:06.128Z,4.17
2022-08-05T14:04:39.255Z,4.47
2022-08-05T14:06:47.740Z,4.13
2022-08-05T14:09:01.444Z,4.70
2022-08-05T14:11:20.634Z,4.10
2022-08-05T14:13:25.436Z,4.17
2022-08-05T14:16:05.641Z,4.60
2022-08-05T14:17:54.975Z,4.40
2022-08-05T14:20:04.473Z,5.40
2022-08-05T14:22:11.899Z,4.53
2022-08-05T14:24:14.972Z,4.37
2022-08-05T14:26:35.470Z,4.27
2022-08-05T14:28:52.037Z,4.80
2022-08-05T14:30:56.613Z,4.03
2022-08-05T14:32:59.417Z,4.20
2022-08-05T14:35:02.083Z,4.60
2022-08-05T14:37:05.230Z,4.70
2022-08-05T14:39:08.090Z,5.00
2022-08-05T14:41:14.955Z,5.10
2022-08-05T14:43:20.585Z,4.27
2022-08-05T14:45:43.326Z,4.43
2022-08-05T14:48:03.774Z,3.97
2022-08-05T14:50:17.158Z,4.40
2022-08-05T14:52:42.913Z,4.50
2022-08-05T14:54:52.645Z,4.40
2022-08-05T14:56:56.293Z,4.63
2022-08-05T14:58:58.941Z,4.80
2022-08-05T15:01:01.718Z,4.20
2022-08-05T15:03:07.397Z,4.37
2022-08-05T15:05:13.647Z,4.50
2022-08-05T15:08:06.214Z,5.10
2022-08-05T15:09:51.943Z,4.00
2022-08-05T15:11:57.706Z,4.30
2022-08-05T15:14:00.489Z,4.10
2022-08-05T15:16:03.363Z,4.73
2022-08-05T15:18:07.446Z,5.00
2022-08-05T15:20:17.136Z,4.90
2022-08-05T15:22:22.283Z,8.97
2022-08-05T15:24:30.384Z,6.13
2022-08-05T15:26:33.604Z,4.90
2022-08-05T15:28:36.323Z,6.60
2022-08-05T15:30:46.647Z,6.00
2022-08-05T15:32:55.483Z,5.60
2022-08-05T15:35:04.070Z,5.80
2022-08-05T15:37:15.499Z,6.30
2022-08-05T15:41:04.090Z,6.10
2022-08-05T15:41:56.322Z,6.47
2022-08-05T15:44:01.912Z,5.67
2022-08-05T15:46:07.338Z,10.70
2022-08-05T15:48:14.046Z,6.60
2022-08-05T15:50:18.667Z,6.97
2022-08-05T15:52:52.163Z,7.90
2022-08-05T15:54:52.803Z,6.00
2022-08-05T15:56:55.647Z,5.77
2022-08-05T15:58:58.422Z,5.70
2022-08-05T16:01:12.018Z,5.67
2022-08-05T16:03:19.558Z,6.10
2022-08-05T16:05:28.321Z,6.50
2022-08-05T16:07:31.417Z,5.90
2022-08-05T16:09:34.582Z,6.40
2022-08-05T16:11:42.702Z,5.53
2022-08-05T16:13:46.560Z,6.23
2022-08-05T16:15:49.253Z,5.50
2022-08-05T16:17:57.312Z,5.53
2022-08-05T16:20:04.340Z,5.13
2022-08-05T16:22:11.000Z,6.13
2022-08-05T16:24:40.209Z,5.53
2022-08-05T16:26:51.734Z,5.83
2022-08-05T16:28:55.173Z,5.87
2022-08-05T16:30:58.526Z,5.30
2022-08-05T16:33:01.968Z,5.73
2022-08-05T16:35:05.205Z,7.53
2022-08-05T16:38:03.073Z,7.60
2022-08-05T16:40:06.026Z,5.80
2022-08-05T16:42:14.830Z,6.00
2022-08-05T16:44:18.793Z,5.93
2022-08-05T16:46:25.031Z,6.30
2022-08-05T16:48:33.585Z,5.57
2022-08-05T16:50:39.048Z,6.03
2022-08-05T16:52:45.949Z,5.73
2022-08-05T16:54:48.913Z,6.53
2022-08-05T16:56:52.433Z,5.57
2022-08-05T16:58:55.224Z,5.63
2022-08-05T17:00:57.971Z,5.47
2022-08-05T17:03:02.034Z,5.10
2022-08-05T17:05:05.135Z,5.40
2022-08-05T17:07:11.178Z,5.47
2022-08-05T17:09:15.713Z,5.20
2022-08-05T17:11:18.636Z,5.87
2022-08-05T17:13:37.452Z,5.50
2022-08-05T17:15:49.681Z,5.93
2022-08-05T17:17:55.706Z,5.90
2022-08-05T17:20:00.775Z,5.60
2022-08-05T17:22:05.202Z,5.97
2022-08-05T17:24:28.357Z,4.93
2022-08-05T17:26:33.362Z,5.87
2022-08-05T17:28:36.512Z,5.20
2022-08-05T17:30:42.619Z,6.43
2022-08-05T17:32:54.354Z,5.63
2022-08-05T17:34:58.158Z,5.53
2022-08-05T17:37:01.252Z,5.47
2022-08-05T17:39:05.072Z,5.67
2022-08-05T17:41:11.643Z,5.83
2022-08-05T17:43:50.588Z,6.20
2022-08-05T17:45:54.854Z,5.97
2022-08-05T17:47:58.593Z,6.03
2022-08-05T17:50:10.433Z,5.63
2022-08-05T17:52:13.897Z,5.70
2022-08-05T17:54:23.273Z,5.20
2022-08-05T17:56:28.467Z,5.20
2022-08-05T17:58:32.921Z,5.77
2022-08-05T18:00:35.611Z,5.53
2022-08-05T18:02:43.500Z,5.40
2022-08-05T18:04:51.393Z,5.03
2022-08-05T18:07:00.566Z,6.00
2022-08-05T18:09:04.133Z,5.73
2022-08-05T18:11:24.132Z,6.17
2022-08-05T18:13:36.700Z,6.50
2022-08-05T18:15:46.602Z,6.10
2022-08-05T18:17:59.491Z,6.70
2022-08-05T18:20:08.190Z,6.13
2022-08-05T18:22:18.086Z,7.80
2022-08-05T18:24:20.983Z,9.50
2022-08-05T18:26:29.147Z,7.70
2022-08-05T18:28:39.201Z,9.10
2022-08-05T18:30:42.108Z,10.50
2022-08-05T18:32:53.394Z,8.40
2022-08-05T18:35:02.718Z,9.17
2022-08-05T18:37:12.213Z,9.23
2022-08-05T18:39:42.021Z,9.60
2022-08-05T18:41:56.952Z,8.70
2022-08-05T18:44:05.515Z,9.63
2022-08-05T18:46:09.750Z,8.57
2022-08-05T18:48:30.127Z,9.70
2022-08-05T18:52:06.301Z,9.33
2022-08-05T18:53:26.452Z,9.30
2022-08-05T18:55:31.234Z,9.37
2022-08-05T18:57:43.660Z,9.63
2022-08-05T19:00:02.329Z,10.30
2022-08-05T19:02:11.505Z,9.90
2022-08-05T19:04:30.541Z,10.67
2022-08-05T19:06:44.618Z,11.70
2022-08-05T19:08:48.309Z,9.93
2022-08-05T19:10:51.193Z,11.70
2022-08-05T19:12:53.934Z,11.80
2022-08-05T19:15:00.591Z,11.20
2022-08-05T19:17:05.576Z,12.33
2022-08-05T19:19:10.475Z,12.10
2022-08-05T19:21:15.754Z,12.00
2022-08-05T19:24:03.292Z,12.37
2022-08-05T19:25:43.724Z,11.87
2022-08-05T19:27:47.138Z,12.87
2022-08-05T19:29:52.551Z,12.23
2022-08-05T19:31:57.342Z,12.77
2022-08-05T19:34:00.232Z,12.07
2022-08-05T19:36:06.192Z,12.43
2022-08-05T19:38:09.595Z,12.40
2022-08-05T19:40:12.884Z,13.93
2022-08-05T19:42:17.946Z,12.83
2022-08-05T19:44:20.889Z,12.33
2022-08-05T19:46:29.559Z,12.77
2022-08-05T19:48:37.059Z,12.43
2022-08-05T19:50:40.037Z,12.60
2022-08-05T19:52:43.274Z,12.33
2022-08-05T19:54:50.596Z,12.57
2022-08-05T19:56:54.133Z,12.20
2022-08-05T19:58:56.960Z,12.07
2022-08-05T20:00:59.951Z,11.70
2022-08-05T20:03:08.780Z,12.20
2022-08-05T20:05:16.403Z,11.60
2022-08-05T20:07:47.311Z,10.63
2022-08-05T20:09:55.037Z,11.23
2022-08-05T20:11:59.403Z,11.40
2022-08-05T20:14:12.398Z,10.57
2022-08-05T20:16:19.591Z,10.70
2022-08-05T20:18:33.747Z,10.53
2022-08-05T20:20:44.454Z,11.57
2022-08-05T20:22:47.506Z,11.60
2022-08-05T20:24:52.073Z,11.53
2022-08-05T20:26:56.487Z,12.73
2022-08-05T20:29:00.847Z,10.90
2022-08-05T20:31:04.217Z,9.43
2022-08-05T20:33:07.464Z,10.40
2022-08-05T20:35:10.542Z,11.00
2022-08-05T20:37:24.185Z,11.50
2022-08-05T20:39:38.802Z,10.13
2022-08-05T20:41:43.904Z,11.17
2022-08-05T20:43:59.100Z,10.90
2022-08-05T20:46:06.738Z,9.70
2022-08-05T20:48:09.466Z,10.47
2022-08-05T20:50:12.320Z,11.80
2022-08-05T20:52:16.376Z,10.60
2022-08-05T20:54:20.769Z,14.00
2022-08-05T20:56:27.674Z,10.87
2022-08-05T20:58:32.744Z,11.00
2022-08-05T21:00:44.290Z,12.30
2022-08-05T21:02:57.618Z,12.53
2022-08-05T21:05:02.571Z,12.07
2022-08-05T21:07:05.528Z,10.40
2022-08-05T21:09:12.158Z,10.50
2022-08-05T21:12:06.766Z,10.20
2022-08-05T21:13:48.044Z,9.10
2022-08-05T21:15:59.501Z,10.97
2022-08-05T21:18:02.212Z,9.73
2022-08-05T21:20:10.170Z,9.30
2022-08-05T21:22:13.119Z,11.40
2022-08-05T21:24:19.481Z,9.20
2022-08-05T21:26:22.603Z,12.67
2022-08-05T21:28:30.667Z,10.10
2022-08-05T21:30:33.628Z,10.90
2022-08-05T21:32:36.407Z,9.40
2022-08-05T21:34:41.168Z,9.50
2022-08-05T21:36:46.644Z,10.07
2022-08-05T21:38:51.936Z,9.60
2022-08-05T21:40:56.503Z,11.00
2022-08-05T21:42:59.399Z,9.47
2022-08-05T21:45:02.622Z,9.80
2022-08-05T21:47:17.318Z,10.83
2022-08-05T21:49:58.908Z,9.63
2022-08-05T21:52:27.155Z,9.07
2022-08-05T21:54:14.969Z,8.93
2022-08-05T21:56:18.977Z,9.93
2022-08-05T21:58:24.829Z,9.40
2022-08-05T22:00:33.530Z,11.37
2022-08-05T22:02:36.545Z,8.00
2022-08-05T22:04:39.490Z,9.20
2022-08-05T22:06:42.818Z,7.60
2022-08-05T22:08:53.611Z,8.90
2022-08-05T22:10:57.989Z,7.30
2022-08-05T22:14:05.203Z,7.63
2022-08-05T22:16:00.341Z,7.90
2022-08-05T22:17:48.556Z,7.77
2022-08-05T22:20:02.681Z,8.00
2022-08-05T22:22:15.465Z,8.00
2022-08-05T22:24:39.594Z,8.20
2022-08-05T22:27:01.365Z,7.43
2022-08-05T22:29:11.055Z,7.33
2022-08-05T22:31:17.072Z,6.77
2022-08-05T22:33:55.688Z,5.60
2022-08-05T22:35:48.802Z,5.67
2022-08-05T22:37:58.643Z,6.00
2022-08-05T22:40:02.584Z,5.10
2022-08-05T22:42:11.255Z,5.60
2022-08-05T22:44:19.144Z,5.30
2022-08-05T22:46:23.581Z,5.00
2022-08-05T22:48:28.602Z,5.87
2022-08-05T22:50:31.473Z,4.10
2022-08-05T22:52:34.479Z,4.30
2022-08-05T22:54:37.855Z,4.23
2022-08-05T22:56:41.628Z,5.63
2022-08-05T22:58:44.879Z,3.77
2022-08-05T23:00:48.920Z,3.37
2022-08-05T23:02:53.292Z,3.80
2022-08-05T23:04:56.298Z,3.77
2022-08-05T23:06:59.006Z,4.10
2022-08-05T23:09:27.003Z,3.60
2022-08-05T23:11:27.162Z,4.03
2022-08-05T23:13:33.502Z,3.73
2022-08-05T23:15:37.345Z,4.03
2022-08-05T23:18:00.903Z,4.23
2022-08-05T23:20:10.511Z,4.23
2022-08-05T23:22:19.876Z,3.40
2022-08-05T23:24:30.345Z,3.50
2022-08-05T23:26:33.037Z,3.50
2022-08-05T23:28:36.073Z,6.23
2022-08-05T23:30:43.427Z,3.70
2022-08-05T23:32:47.816Z,3.50
2022-08-05T23:34:52.077Z,3.43
2022-08-05T23:36:55.187Z,3.73
2022-08-05T23:38:57.863Z,3.20
2022-08-05T23:41:02.371Z,3.50
2022-08-05T23:43:11.308Z,3.50
2022-08-05T23:45:27.383Z,3.53
2022-08-05T23:47:35.746Z,3.73
2022-08-05T23:49:56.424Z,3.53
2022-08-05T23:52:17.012Z,3.83
2022-08-05T23:54:25.847Z,4.00
2022-08-05T23:56:29.293Z,4.30
2022-08-05T23:58:32.650Z,4.03
